Time;durP1;ratioP1;P1;durP2;ratioP2;P2;SDS_P1;SDS_P2;PMS_P1;PMS_P2;Temp;Humidity;BMP_temperature;BMP_pressure;BME280_temperature;BME280_humidity;BME280_pressure;Samples;Min_cycle;Max_cycle;Signal;HPM_P1;HPM_P2
2021/04/04 00:00:18;;;;;;;8.30;1.40;;;;;;;;;;5016834;28;20053;-55
2021/04/04 00:02:44;;;;;;;16.80;1.70;;;;;;;;;;4999342;28;20057;-54
2021/04/04 00:05:11;;;;;;;6.75;1.35;;;;;;;;;;5018770;28;20053;-56
2021/04/04 00:07:38;;;;;;;10.05;1.80;;;;;;;;;;5023925;28;20045;-53
2021/04/04 00:10:04;;;;;;;10.77;1.50;;;;;;;;;;5004145;28;20034;-55
2021/04/04 00:12:36;;;;;;;9.60;1.75;;;;;;;;;;5005913;28;20038;-54
2021/04/04 00:15:04;;;;;;;13.30;1.63;;;;;;;;;;5003251;28;20136;-50
2021/04/04 00:17:30;;;;;;;13.32;1.67;;;;;;;;;;5003599;28;20042;-54
2021/04/04 00:19:57;;;;;;;16.38;1.88;;;;;;;;;;5026730;28;20068;-56
2021/04/04 00:22:23;;;;;;;12.90;1.52;;;;;;;;;;5043319;28;20041;-55
2021/04/04 00:24:49;;;;;;;19.45;1.83;;;;;;;;;;5038728;28;20124;-53
2021/04/04 00:27:15;;;;;;;16.35;1.83;;;;;;;;;;5042858;28;20037;-60
2021/04/04 00:29:42;;;;;;;8.63;1.50;;;;;;;;;;5039145;28;20072;-54
2021/04/04 00:32:09;;;;;;;8.85;1.10;;;;;;;;;;5041777;28;20038;-59
2021/04/04 00:34:35;;;;;;;10.70;1.50;;;;;;;;;;5039532;28;20051;-51
2021/04/04 00:37:01;;;;;;;9.32;1.48;;;;;;;;;;5042894;28;20033;-56
2021/04/04 00:39:28;;;;;;;9.13;1.45;;;;;;;;;;5037488;28;20037;-56
2021/04/04 00:41:54;;;;;;;11.55;1.33;;;;;;;;;;5043293;28;20041;-56
2021/04/04 00:44:20;;;;;;;12.43;1.60;;;;;;;;;;5043003;28;20041;-59
2021/04/04 00:46:46;;;;;;;8.73;1.27;;;;;;;;;;5038180;28;20044;-55
2021/04/04 00:49:13;;;;;;;7.53;1.50;;;;;;;;;;5042723;28;20034;-58
2021/04/04 00:51:39;;;;;;;10.32;1.40;;;;;;;;;;5037819;28;20029;-59
2021/04/04 00:54:05;;;;;;;13.18;1.63;;;;;;;;;;5030736;28;20153;-60
2021/04/04 00:56:32;;;;;;;12.02;1.45;;;;;;;;;;5017354;28;20037;-58
2021/04/04 00:58:59;;;;;;;9.70;1.70;;;;;;;;;;5023328;28;20054;-60
2021/04/04 01:01:25;;;;;;;8.90;1.40;;;;;;;;;;5018343;28;20057;-60
2021/04/04 01:03:52;;;;;;;10.05;2.20;;;;;;;;;;5021583;28;20045;-59
2021/04/04 01:06:18;;;;;;;11.50;1.35;;;;;;;;;;5036899;28;20052;-59
2021/04/04 01:08:45;;;;;;;7.63;1.27;;;;;;;;;;5043154;28;20029;-59
2021/04/04 01:11:14;;;;;;;11.15;1.33;;;;;;;;;;5040925;28;20041;-57
2021/04/04 01:13:42;;;;;;;11.15;1.63;;;;;;;;;;5025075;28;20070;-53
2021/04/04 01:16:10;;;;;;;7.82;1.48;;;;;;;;;;5019321;28;20089;-57
2021/04/04 01:18:38;;;;;;;9.60;1.70;;;;;;;;;;5039474;28;20037;-58
2021/04/04 01:21:06;;;;;;;5.38;1.25;;;;;;;;;;5037620;28;20037;-58
2021/04/04 01:23:41;;;;;;;9.43;1.42;;;;;;;;;;5041236;28;20041;-60
2021/04/04 01:26:10;;;;;;;8.95;1.33;;;;;;;;;;5035098;28;20049;-54
2021/04/04 01:28:38;;;;;;;10.18;1.92;;;;;;;;;;5063647;28;20072;-57
2021/04/04 01:31:05;;;;;;;14.77;1.70;;;;;;;;;;5063176;28;20036;-59
2021/04/04 01:33:33;;;;;;;8.55;1.45;;;;;;;;;;5039694;28;20102;-58
2021/04/04 01:36:01;;;;;;;15.30;1.70;;;;;;;;;;5043382;28;20041;-53
2021/04/04 01:38:28;;;;;;;8.65;1.30;;;;;;;;;;5038386;28;20053;-54
2021/04/04 01:40:56;;;;;;;13.55;1.60;;;;;;;;;;5043346;28;20041;-51
2021/04/04 01:43:25;;;;;;;7.13;1.27;;;;;;;;;;5054528;28;20040;-57
2021/04/04 01:45:53;;;;;;;13.68;1.98;;;;;;;;;;5047086;28;20045;-59
2021/04/04 01:48:19;;;;;;;7.70;1.57;;;;;;;;;;5031258;28;20045;-57
2021/04/04 01:50:45;;;;;;;11.13;1.27;;;;;;;;;;5041365;28;20052;-60
2021/04/04 01:53:13;;;;;;;14.32;1.52;;;;;;;;;;5034176;28;20037;-58
2021/04/04 01:55:39;;;;;;;13.02;1.33;;;;;;;;;;5038286;28;20045;-54
2021/04/04 01:58:06;;;;;;;13.20;1.50;;;;;;;;;;5038404;28;20045;-59
2021/04/04 02:00:32;;;;;;;14.48;2.30;;;;;;;;;;5038546;28;20053;-56
2021/04/04 02:02:59;;;;;;;7.72;1.33;;;;;;;;;;5039060;28;20049;-56
2021/04/04 02:05:26;;;;;;;7.65;1.17;;;;;;;;;;5041162;28;20078;-59
2021/04/04 02:07:53;;;;;;;10.07;1.55;;;;;;;;;;5038328;28;20060;-60
2021/04/04 02:10:20;;;;;;;13.35;1.77;;;;;;;;;;5044319;28;20069;-58
2021/04/04 02:12:47;;;;;;;8.27;1.55;;;;;;;;;;5031528;28;20049;-59
2021/04/04 02:15:17;;;;;;;10.77;1.55;;;;;;;;;;5020459;28;20042;-59
2021/04/04 02:17:46;;;;;;;7.70;1.70;;;;;;;;;;5023442;28;20049;-58
2021/04/04 02:20:15;;;;;;;11.70;1.52;;;;;;;;;;5028441;28;20049;-60
2021/04/04 02:22:42;;;;;;;16.55;1.80;;;;;;;;;;5033103;28;20050;-60
2021/04/04 02:25:10;;;;;;;11.23;1.63;;;;;;;;;;5014714;28;20056;-59
2021/04/04 02:27:36;;;;;;;11.65;1.95;;;;;;;;;;5033102;28;20025;-57
2021/04/04 02:30:02;;;;;;;14.82;1.60;;;;;;;;;;5039139;28;20056;-54
2021/04/04 02:32:29;;;;;;;16.60;1.70;;;;;;;;;;5042426;28;20033;-56
2021/04/04 02:35:00;;;;;;;7.50;1.42;;;;;;;;;;5038928;28;20029;-59
2021/04/04 02:37:27;;;;;;;8.45;1.73;;;;;;;;;;5041788;28;20049;-59
2021/04/04 02:39:54;;;;;;;10.65;1.52;;;;;;;;;;5038862;28;20037;-56
2021/04/04 02:42:25;;;;;;;6.87;1.23;;;;;;;;;;5041690;28;20052;-58
2021/04/04 02:44:52;;;;;;;6.38;1.40;;;;;;;;;;5037386;28;20037;-53
2021/04/04 02:47:20;;;;;;;13.15;1.70;;;;;;;;;;5041738;28;20093;-55
2021/04/04 02:49:48;;;;;;;6.63;1.52;;;;;;;;;;5037583;28;20044;-53
2021/04/04 02:52:16;;;;;;;7.18;1.30;;;;;;;;;;5041004;28;20176;-52
2021/04/04 02:54:43;;;;;;;10.48;1.48;;;;;;;;;;5038306;28;20029;-55
2021/04/04 02:57:10;;;;;;;10.60;1.83;;;;;;;;;;5040034;28;20045;-57
2021/04/04 02:59:37;;;;;;;9.57;1.65;;;;;;;;;;5042476;28;20045;-58
2021/04/04 03:02:05;;;;;;;9.52;1.60;;;;;;;;;;5087705;22;20057;-56
2021/04/04 03:04:34;;;;;;;5.20;1.70;;;;;;;;;;5021249;28;20046;-56
2021/04/04 03:07:01;;;;;;;13.45;1.60;;;;;;;;;;5017099;28;20044;-56
2021/04/04 03:09:29;;;;;;;9.70;1.35;;;;;;;;;;5022463;28;20049;-56
2021/04/04 03:11:56;;;;;;;14.05;1.52;;;;;;;;;;5011433;28;20089;-56
2021/04/04 03:14:24;;;;;;;13.38;1.63;;;;;;;;;;5020945;28;20033;-55
2021/04/04 03:16:50;;;;;;;10.50;1.70;;;;;;;;;;5012227;28;20057;-59
2021/04/04 03:19:16;;;;;;;14.80;1.65;;;;;;;;;;5039413;28;20048;-57
2021/04/04 03:21:43;;;;;;;8.18;1.45;;;;;;;;;;5040490;28;20052;-56
2021/04/04 03:24:10;;;;;;;9.02;1.40;;;;;;;;;;5035575;28;20037;-60
2021/04/04 03:26:38;;;;;;;10.60;1.40;;;;;;;;;;5040795;28;20037;-55
2021/04/04 03:29:05;;;;;;;16.13;1.52;;;;;;;;;;5033736;28;20114;-59
2021/04/04 03:31:31;;;;;;;10.32;1.70;;;;;;;;;;5041630;28;20057;-56
2021/04/04 03:34:09;;;;;;;8.65;1.65;;;;;;;;;;5011827;28;20050;-57
2021/04/04 03:36:35;;;;;;;5.43;1.53;;;;;;;;;;5020699;28;20037;-55
2021/04/04 03:39:01;;;;;;;7.78;1.30;;;;;;;;;;5015388;28;20108;-60
2021/04/04 03:41:29;;;;;;;8.63;1.77;;;;;;;;;;5019316;28;20053;-56
2021/04/04 03:44:01;;;;;;;6.53;1.13;;;;;;;;;;5025740;28;20049;-59
2021/04/04 03:46:30;;;;;;;9.88;1.60;;;;;;;;;;5017467;28;20038;-59
2021/04/04 03:48:56;;;;;;;4.30;1.02;;;;;;;;;;5018598;28;20351;-58
2021/04/04 03:51:23;;;;;;;7.03;1.40;;;;;;;;;;4997598;28;20041;-57
2021/04/04 03:53:54;;;;;;;12.00;1.38;;;;;;;;;;5005829;28;20049;-59
2021/04/04 03:56:22;;;;;;;10.05;1.52;;;;;;;;;;5001879;28;20053;-57
2021/04/04 03:58:49;;;;;;;9.13;1.40;;;;;;;;;;5021742;28;20076;-56
2021/04/04 04:01:18;;;;;;;5.70;1.25;;;;;;;;;;5023410;28;20056;-58
2021/04/04 04:03:46;;;;;;;8.23;1.13;;;;;;;;;;5041896;28;20030;-59
2021/04/04 04:06:12;;;;;;;11.67;1.20;;;;;;;;;;5044450;28;20049;-57
2021/04/04 04:08:40;;;;;;;10.38;1.48;;;;;;;;;;5040730;28;20282;-58
2021/04/04 04:11:08;;;;;;;8.35;1.17;;;;;;;;;;5043197;28;20022;-58
2021/04/04 04:13:35;;;;;;;10.05;1.30;;;;;;;;;;5023184;28;20154;-59
2021/04/04 04:16:02;;;;;;;11.05;1.23;;;;;;;;;;5041882;28;20052;-56
2021/04/04 04:18:28;;;;;;;8.18;1.30;;;;;;;;;;5016578;28;20050;-56
2021/04/04 04:20:55;;;;;;;11.63;1.35;;;;;;;;;;5004647;28;20104;-56
2021/04/04 04:23:22;;;;;;;11.43;1.42;;;;;;;;;;5007872;28;20057;-55
2021/04/04 04:25:49;;;;;;;12.57;1.70;;;;;;;;;;5025353;28;20077;-56
2021/04/04 04:28:16;;;;;;;11.30;1.17;;;;;;;;;;5013346;28;20034;-57
2021/04/04 04:30:43;;;;;;;15.15;1.50;;;;;;;;;;5026847;28;20106;-59
2021/04/04 04:33:12;;;;;;;8.90;1.38;;;;;;;;;;5029067;28;20038;-59
2021/04/04 04:35:38;;;;;;;8.95;1.38;;;;;;;;;;5010302;28;20049;-59
2021/04/04 04:38:05;;;;;;;6.40;1.17;;;;;;;;;;5023341;28;20222;-58
2021/04/04 04:40:31;;;;;;;10.15;1.33;;;;;;;;;;4993089;28;20048;-57
2021/04/04 04:42:59;;;;;;;10.45;1.65;;;;;;;;;;5002476;28;20046;-59
2021/04/04 04:45:27;;;;;;;5.32;1.27;;;;;;;;;;5023201;28;20033;-60
2021/04/04 04:47:54;;;;;;;12.15;1.42;;;;;;;;;;5041491;28;20044;-59
2021/04/04 04:50:20;;;;;;;12.85;1.52;;;;;;;;;;5036403;28;20037;-54
2021/04/04 04:52:47;;;;;;;11.82;1.25;;;;;;;;;;5043144;28;20042;-59
2021/04/04 04:55:15;;;;;;;10.00;1.42;;;;;;;;;;5027074;28;20042;-53
2021/04/04 04:57:41;;;;;;;10.00;1.50;;;;;;;;;;5007532;28;20022;-56
2021/04/04 05:00:08;;;;;;;3.97;1.02;;;;;;;;;;5030071;28;20087;-57
2021/04/04 05:02:34;;;;;;;12.15;1.30;;;;;;;;;;5045192;28;20037;-59
2021/04/04 05:05:00;;;;;;;6.93;1.40;;;;;;;;;;5040268;28;20046;-55
2021/04/04 05:07:28;;;;;;;8.05;1.45;;;;;;;;;;5045307;28;20037;-56
2021/04/04 05:09:54;;;;;;;11.93;1.60;;;;;;;;;;5043464;28;20098;-56
2021/04/04 05:12:25;;;;;;;7.95;1.38;;;;;;;;;;5005509;28;20038;-59
2021/04/04 05:14:53;;;;;;;13.25;1.48;;;;;;;;;;5007306;28;20074;-59
2021/04/04 05:17:19;;;;;;;11.68;1.38;;;;;;;;;;5019212;28;20053;-55
2021/04/04 05:19:45;;;;;;;9.55;1.30;;;;;;;;;;4993872;28;20038;-55
2021/04/04 05:22:13;;;;;;;9.18;1.23;;;;;;;;;;5017045;28;20055;-58
2021/04/04 05:24:39;;;;;;;;;;;;;;;;;;5043492;28;20048;-51
2021/04/04 05:27:06;;;;;;;7.10;1.10;;;;;;;;;;5034441;28;19921;-57
2021/04/04 05:29:33;;;;;;;8.55;1.33;;;;;;;;;;5027236;28;20044;-56
2021/04/04 05:32:10;;;;;;;7.63;1.33;;;;;;;;;;5014637;28;20041;-57
2021/04/04 05:34:38;;;;;;;7.78;1.27;;;;;;;;;;5024869;28;20044;-54
2021/04/04 05:37:05;;;;;;;7.18;1.17;;;;;;;;;;5006925;28;20037;-59
2021/04/04 05:39:32;;;;;;;8.65;1.42;;;;;;;;;;5008995;28;20108;-59
2021/04/04 05:41:59;;;;;;;11.55;1.25;;;;;;;;;;5006193;28;20026;-55
2021/04/04 05:44:27;;;;;;;16.48;1.65;;;;;;;;;;5007231;28;20041;-49
2021/04/04 05:46:58;;;;;;;7.65;1.42;;;;;;;;;;5003310;28;20045;-48
2021/04/04 05:49:31;;;;;;;13.00;1.40;;;;;;;;;;5008227;28;20033;-55
2021/04/04 05:52:04;;;;;;;12.68;1.50;;;;;;;;;;5019190;28;20033;-48
2021/04/04 05:54:45;;;;;;;10.13;2.10;;;;;;;;;;5022274;28;20136;-51
2021/04/04 05:57:12;;;;;;;13.10;1.70;;;;;;;;;;5018207;28;20034;-54
2021/04/04 05:59:42;;;;;;;6.25;1.20;;;;;;;;;;5028789;28;20046;-54
2021/04/04 06:02:31;;;;;;;10.93;1.55;;;;;;;;;;5024564;28;20044;-59
2021/04/04 06:05:02;;;;;;;11.25;1.50;;;;;;;;;;5023627;28;20227;-58
2021/04/04 06:07:47;;;;;;;22.55;2.13;;;;;;;;;;5026810;28;20041;-58
2021/04/04 06:10:16;;;;;;;9.13;1.27;;;;;;;;;;5047179;28;20040;-56
2021/04/04 06:16:07;;;;;;;14.48;1.55;;;;;;;;;;4964402;28;20023;-54
2021/04/04 06:18:40;;;;;;;7.75;1.20;;;;;;;;;;5003970;28;20033;-58
2021/04/04 06:21:12;;;;;;;19.10;2.30;;;;;;;;;;5009201;28;20033;-52
2021/04/04 06:23:41;;;;;;;13.77;1.42;;;;;;;;;;5005495;28;20052;-59
2021/04/04 06:26:14;;;;;;;11.27;1.35;;;;;;;;;;5008210;28;20049;-59
2021/04/04 06:28:46;;;;;;;5.70;1.10;;;;;;;;;;5025803;28;20052;-56
2021/04/04 06:31:16;;;;;;;7.10;1.10;;;;;;;;;;5027486;28;20118;-55
2021/04/04 06:33:48;;;;;;;9.45;1.13;;;;;;;;;;5026349;28;20043;-54
2021/04/04 06:36:24;;;;;;;7.32;1.00;;;;;;;;;;5047812;28;20037;-56
2021/04/04 06:38:53;;;;;;;9.23;1.63;;;;;;;;;;5033380;28;20048;-56
2021/04/04 06:41:28;;;;;;;19.05;2.78;;;;;;;;;;5024670;28;20045;-56
2021/04/04 06:44:08;;;;;;;13.65;1.20;;;;;;;;;;5003516;28;20105;-57
2021/04/04 06:46:41;;;;;;;8.02;1.20;;;;;;;;;;5024849;28;20096;-55
2021/04/04 06:49:15;;;;;;;11.43;1.27;;;;;;;;;;5023889;28;20052;-55
2021/04/04 06:51:47;;;;;;;14.48;2.40;;;;;;;;;;5028575;28;20041;-59
2021/04/04 06:54:19;;;;;;;10.73;1.95;;;;;;;;;;5025032;28;21007;-55
2021/04/04 06:57:03;;;;;;;10.32;1.85;;;;;;;;;;5048222;28;20064;-56
2021/04/04 06:59:32;;;;;;;10.55;1.92;;;;;;;;;;5053078;28;20093;-54
2021/04/04 07:02:01;;;;;;;11.50;2.40;;;;;;;;;;5021164;28;20069;-60
2021/04/04 07:04:33;;;;;;;8.60;1.67;;;;;;;;;;4998716;28;20058;-57
2021/04/04 07:07:16;;;;;;;9.77;1.48;;;;;;;;;;4992589;28;20027;-55
2021/04/04 07:09:51;;;;;;;7.20;1.27;;;;;;;;;;4999072;28;20045;-60
2021/04/04 07:12:25;;;;;;;11.77;2.10;;;;;;;;;;5002641;28;20038;-52
2021/04/04 07:15:00;;;;;;;7.50;1.23;;;;;;;;;;5016087;28;20104;-56
2021/04/04 07:17:33;;;;;;;9.65;1.45;;;;;;;;;;5019373;28;20030;-56
2021/04/04 07:20:13;;;;;;;9.23;1.33;;;;;;;;;;5012291;28;20034;-56
2021/04/04 07:23:11;;;;;;;8.43;1.58;;;;;;;;;;4986046;28;20049;-59
2021/04/04 07:25:39;;;;;;;7.20;1.10;;;;;;;;;;4982546;28;20039;-59
2021/04/04 07:28:05;;;;;;;;;;;;;;;;;;4982637;28;20071;-55
2021/04/04 07:30:35;;;;;;;7.63;1.40;;;;;;;;;;4975832;28;20028;-59
2021/04/04 07:33:15;;;;;;;9.73;1.08;;;;;;;;;;4980627;28;20046;-58
2021/04/04 07:35:44;;;;;;;9.40;1.25;;;;;;;;;;5008555;28;20071;-58
2021/04/04 07:38:13;;;;;;;11.68;1.42;;;;;;;;;;4981737;28;20058;-57
2021/04/04 07:40:42;;;;;;;5.25;1.20;;;;;;;;;;4996793;28;20109;-56
2021/04/04 07:43:28;;;;;;;11.18;1.33;;;;;;;;;;4997573;28;20031;-59
2021/04/04 07:45:58;;;;;;;3.30;1.13;;;;;;;;;;5014633;28;20054;-59
2021/04/04 07:48:26;;;;;;;10.48;1.70;;;;;;;;;;4999665;28;20042;-59
2021/04/04 07:50:59;;;;;;;6.60;1.33;;;;;;;;;;5001638;28;20042;-60
2021/04/04 07:53:31;;;;;;;7.47;1.50;;;;;;;;;;4996904;28;20062;-58
2021/04/04 07:55:59;;;;;;;5.45;1.30;;;;;;;;;;5001773;28;20045;-60
2021/04/04 07:58:28;;;;;;;9.93;1.83;;;;;;;;;;4998252;28;20058;-58
2021/04/04 08:00:57;;;;;;;9.48;1.48;;;;;;;;;;4998915;28;20038;-57
2021/04/04 08:03:27;;;;;;;8.48;1.42;;;;;;;;;;4991805;28;20075;-60
2021/04/04 08:05:53;;;;;;;7.40;1.83;;;;;;;;;;5001938;28;20060;-59
2021/04/04 08:08:20;;;;;;;5.75;1.60;;;;;;;;;;4993962;28;20086;-57
2021/04/04 08:10:51;;;;;;;8.52;2.45;;;;;;;;;;4999963;28;20124;-58
2021/04/04 08:13:20;;;;;;;9.60;2.08;;;;;;;;;;4994377;28;20124;-59
2021/04/04 08:15:58;;;;;;;7.30;1.58;;;;;;;;;;5000051;28;20042;-55
2021/04/04 08:18:23;;;;;;;11.23;1.70;;;;;;;;;;4983169;28;20045;-58
2021/04/04 08:20:50;;;;;;;12.93;1.95;;;;;;;;;;4985147;28;20394;-60
2021/04/04 08:23:20;;;;;;;9.30;1.52;;;;;;;;;;4987508;28;20109;-59
2021/04/04 08:25:49;;;;;;;6.03;1.40;;;;;;;;;;4991745;28;20115;-59
2021/04/04 08:28:19;;;;;;;6.43;1.45;;;;;;;;;;4983413;28;20038;-56
2021/04/04 08:30:47;;;;;;;4.32;1.45;;;;;;;;;;4986758;28;20030;-56
2021/04/04 08:33:20;;;;;;;3.20;1.42;;;;;;;;;;4986100;28;20045;-58
2021/04/04 08:35:48;;;;;;;9.90;1.83;;;;;;;;;;4987484;28;20035;-54
2021/04/04 08:38:17;;;;;;;5.03;1.63;;;;;;;;;;5001076;28;20062;-59
2021/04/04 08:40:43;;;;;;;;;;;;;;;;;;4988622;28;20516;-58
2021/04/04 08:43:12;;;;;;;10.10;1.50;;;;;;;;;;5000736;28;19922;-54
2021/04/04 08:45:43;;;;;;;8.52;1.90;;;;;;;;;;5011385;28;20109;-59
2021/04/04 08:48:09;;;;;;;3.17;1.20;;;;;;;;;;4965391;28;20566;-59
2021/04/04 08:50:37;;;;;;;6.28;1.63;;;;;;;;;;4982018;28;20050;-59
2021/04/04 08:53:14;;;;;;;5.78;1.38;;;;;;;;;;5012422;28;20058;-58
2021/04/04 08:55:40;;;;;;;2.83;1.42;;;;;;;;;;5017712;28;20034;-60
2021/04/04 08:58:07;;;;;;;3.55;1.30;;;;;;;;;;5025568;28;20057;-56
2021/04/04 09:00:36;;;;;;;4.00;1.33;;;;;;;;;;5007714;28;20136;-59
2021/04/04 09:03:04;;;;;;;8.15;1.35;;;;;;;;;;5007113;28;20034;-55
2021/04/04 09:05:33;;;;;;;2.80;1.23;;;;;;;;;;4988333;28;20042;-59
2021/04/04 09:08:01;;;;;;;6.45;1.60;;;;;;;;;;4986068;28;20031;-55
2021/04/04 09:10:29;;;;;;;3.03;1.30;;;;;;;;;;4978801;28;20046;-54
2021/04/04 09:13:00;;;;;;;4.30;1.23;;;;;;;;;;4968321;28;20039;-55
2021/04/04 09:15:27;;;;;;;6.55;1.33;;;;;;;;;;4971268;28;20038;-53
2021/04/04 09:17:56;;;;;;;2.83;1.00;;;;;;;;;;4987865;28;20039;-57
2021/04/04 09:20:32;;;;;;;4.57;1.05;;;;;;;;;;4982463;28;20075;-55
2021/04/04 09:23:04;;;;;;;5.03;1.23;;;;;;;;;;4986527;28;20035;-55
2021/04/04 09:25:31;;;;;;;4.32;1.25;;;;;;;;;;4973485;28;20039;-55
2021/04/04 09:27:58;;;;;;;2.60;1.00;;;;;;;;;;4965402;28;20050;-59
2021/04/04 09:30:33;;;;;;;5.38;1.40;;;;;;;;;;4967376;28;20097;-57
2021/04/04 09:33:03;;;;;;;5.20;1.27;;;;;;;;;;4974992;28;20505;-58
2021/04/04 09:35:29;;;;;;;6.75;1.60;;;;;;;;;;4965116;28;20056;-59
2021/04/04 09:37:59;;;;;;;3.20;1.17;;;;;;;;;;4985254;28;20087;-54
2021/04/04 09:40:26;;;;;;;11.80;1.73;;;;;;;;;;4984417;28;20035;-59
2021/04/04 09:42:54;;;;;;;9.95;2.00;;;;;;;;;;5014272;28;20045;-56
2021/04/04 09:45:21;;;;;;;9.75;1.45;;;;;;;;;;4991355;28;20054;-60
2021/04/04 09:47:48;;;;;;;5.10;0.90;;;;;;;;;;4996578;28;20054;-59
2021/04/04 09:50:23;;;;;;;6.70;1.08;;;;;;;;;;4982603;28;20042;-60
2021/04/04 09:52:49;;;;;;;4.38;1.30;;;;;;;;;;4965020;28;20035;-60
2021/04/04 09:55:17;;;;;;;2.30;0.70;;;;;;;;;;4966711;28;20059;-58
2021/04/04 09:57:44;;;;;;;2.40;1.00;;;;;;;;;;4976921;28;20089;-59
2021/04/04 10:00:21;;;;;;;4.18;1.20;;;;;;;;;;4986115;28;20113;-56
2021/04/04 10:02:49;;;;;;;7.38;1.00;;;;;;;;;;4985007;28;20034;-59
2021/04/04 10:05:25;;;;;;;6.80;1.27;;;;;;;;;;5005673;28;20026;-59
2021/04/04 10:07:51;;;;;;;2.28;1.10;;;;;;;;;;4989352;28;20069;-59
2021/04/04 10:10:27;;;;;;;5.35;0.98;;;;;;;;;;4986444;28;20116;-59
2021/04/04 10:13:01;;;;;;;5.22;1.27;;;;;;;;;;5002988;28;20039;-59
2021/04/04 10:15:28;;;;;;;3.15;1.20;;;;;;;;;;4985209;28;20038;-61
2021/04/04 10:17:55;;;;;;;4.10;1.15;;;;;;;;;;4983561;28;20058;-59
2021/04/04 10:20:31;;;;;;;6.97;1.38;;;;;;;;;;4998791;28;20042;-60
2021/04/04 10:23:07;;;;;;;6.38;1.65;;;;;;;;;;5007885;28;20049;-54
2021/04/04 10:25:33;;;;;;;5.95;1.50;;;;;;;;;;4993991;28;20050;-58
2021/04/04 10:28:01;;;;;;;19.60;6.30;;;;;;;;;;4993601;28;20038;-55
2021/04/04 10:30:31;;;;;;;5.97;1.70;;;;;;;;;;5023754;28;20118;-58
2021/04/04 10:33:15;;;;;;;5.30;1.42;;;;;;;;;;5016767;28;20046;-57
2021/04/04 10:35:42;;;;;;;6.35;1.83;;;;;;;;;;5004738;28;20038;-59
2021/04/04 10:38:09;;;;;;;6.88;1.67;;;;;;;;;;5001132;28;20052;-58
2021/04/04 10:40:39;;;;;;;7.07;1.90;;;;;;;;;;5003555;28;20037;-58
2021/04/04 10:43:06;;;;;;;11.75;1.35;;;;;;;;;;4998916;28;20030;-60
2021/04/04 10:45:32;;;;;;;2.90;1.52;;;;;;;;;;5003620;28;20042;-59
2021/04/04 10:48:05;;;;;;;7.82;1.80;;;;;;;;;;5001231;28;20039;-59
2021/04/04 10:50:31;;;;;;;6.28;1.50;;;;;;;;;;5001836;28;20050;-57
2021/04/04 10:52:59;;;;;;;6.43;1.60;;;;;;;;;;5004955;28;20031;-58
2021/04/04 10:55:25;;;;;;;7.80;1.52;;;;;;;;;;5000966;28;20053;-58
2021/04/04 10:57:51;;;;;;;8.15;1.50;;;;;;;;;;5004359;28;20057;-54
2021/04/04 11:00:17;;;;;;;7.65;2.00;;;;;;;;;;5001714;28;20042;-57
2021/04/04 11:02:43;;;;;;;7.75;2.50;;;;;;;;;;5019399;28;20030;-55
2021/04/04 11:05:09;;;;;;;8.60;1.83;;;;;;;;;;4986856;28;20034;-55
2021/04/04 11:07:36;;;;;;;8.38;2.22;;;;;;;;;;4984458;28;20046;-54
2021/04/04 11:10:04;;;;;;;8.52;2.10;;;;;;;;;;5022156;28;20049;-56
2021/04/04 11:12:32;;;;;;;10.38;2.17;;;;;;;;;;5004650;28;20041;-59
2021/04/04 11:14:58;;;;;;;9.10;2.15;;;;;;;;;;4998917;28;20070;-59
2021/04/04 11:17:25;;;;;;;7.47;1.95;;;;;;;;;;5014413;28;20045;-60
2021/04/04 11:19:52;;;;;;;10.40;1.88;;;;;;;;;;5012177;28;20056;-57
2021/04/04 11:22:34;;;;;;;9.57;1.95;;;;;;;;;;5003437;28;20074;-60
2021/04/04 11:25:04;;;;;;;10.95;2.50;;;;;;;;;;5010568;28;20097;-58
2021/04/04 11:27:29;;;;;;;;;;;;;;;;;;5019128;28;20077;-60
2021/04/04 11:29:56;;;;;;;10.10;2.30;;;;;;;;;;4997097;28;19921;-59
2021/04/04 11:32:30;;;;;;;9.35;2.58;;;;;;;;;;5002876;28;20074;-60
2021/04/04 11:34:59;;;;;;;7.95;2.30;;;;;;;;;;5009611;28;20053;-59
2021/04/04 11:37:38;;;;;;;6.70;1.85;;;;;;;;;;5003496;28;20030;-60
2021/04/04 11:40:11;;;;;;;9.98;2.88;;;;;;;;;;4993623;28;20059;-60
2021/04/04 11:42:41;;;;;;;9.75;2.05;;;;;;;;;;4999266;28;20048;-56
2021/04/04 11:45:13;;;;;;;10.40;1.95;;;;;;;;;;5005116;28;20306;-58
2021/04/04 11:47:40;;;;;;;8.48;2.05;;;;;;;;;;5018856;28;20038;-59
2021/04/04 11:50:24;;;;;;;13.13;2.53;;;;;;;;;;5042399;28;20148;-58
2021/04/04 11:52:52;;;;;;;7.00;2.17;;;;;;;;;;5009941;28;20038;-56
2021/04/04 11:55:21;;;;;;;8.68;2.67;;;;;;;;;;5010969;28;20046;-59
2021/04/04 11:57:48;;;;;;;8.95;3.30;;;;;;;;;;5007672;28;20033;-59
2021/04/04 12:00:20;;;;;;;8.27;2.35;;;;;;;;;;5038557;28;20026;-60
2021/04/04 12:02:51;;;;;;;8.27;2.45;;;;;;;;;;5016506;28;20070;-61
2021/04/04 12:05:18;;;;;;;9.43;2.53;;;;;;;;;;5011026;28;20050;-60
2021/04/04 12:07:45;;;;;;;5.32;1.70;;;;;;;;;;5015154;28;20057;-61
2021/04/04 12:10:12;;;;;;;6.80;2.10;;;;;;;;;;5028863;28;20061;-59
2021/04/04 12:12:40;;;;;;;6.15;2.10;;;;;;;;;;5013257;28;20037;-60
2021/04/04 12:15:07;;;;;;;10.05;2.30;;;;;;;;;;5024446;28;20123;-60
2021/04/04 12:17:34;;;;;;;9.07;2.58;;;;;;;;;;5027619;28;20033;-60
2021/04/04 12:20:00;;;;;;;6.43;2.20;;;;;;;;;;5024979;28;20041;-60
2021/04/04 12:22:40;;;;;;;16.58;3.28;;;;;;;;;;5005156;28;20036;-57
2021/04/04 12:25:07;;;;;;;10.60;2.90;;;;;;;;;;5015004;28;20061;-55
2021/04/04 12:27:34;;;;;;;14.55;2.75;;;;;;;;;;5020975;28;20073;-59
2021/04/04 12:30:00;;;;;;;12.48;2.63;;;;;;;;;;5009949;28;20048;-59
2021/04/04 12:32:27;;;;;;;10.93;3.10;;;;;;;;;;5005588;28;20057;-57
2021/04/04 12:34:55;;;;;;;8.73;2.35;;;;;;;;;;5026085;28;20148;-57
2021/04/04 12:37:22;;;;;;;7.78;2.50;;;;;;;;;;5023877;28;20413;-57
2021/04/04 12:39:48;;;;;;;12.30;2.80;;;;;;;;;;5026930;28;20054;-60
2021/04/04 12:42:28;;;;;;;8.15;3.00;;;;;;;;;;5026554;28;20044;-59
2021/04/04 12:44:55;;;;;;;10.20;2.92;;;;;;;;;;5040993;28;20045;-56
2021/04/04 12:47:22;;;;;;;9.40;2.75;;;;;;;;;;5010144;28;20046;-58
2021/04/04 12:49:53;;;;;;;7.63;2.55;;;;;;;;;;5022426;28;20037;-60
2021/04/04 12:52:35;;;;;;;8.52;2.88;;;;;;;;;;5025163;28;20036;-58
2021/04/04 12:55:15;;;;;;;13.82;2.63;;;;;;;;;;5018441;28;20052;-57
2021/04/04 12:57:42;;;;;;;9.13;2.95;;;;;;;;;;5028129;28;20078;-57
2021/04/04 13:00:13;;;;;;;15.75;3.08;;;;;;;;;;5013088;28;20037;-59
2021/04/04 13:02:40;;;;;;;15.95;3.20;;;;;;;;;;5028201;28;20033;-56
2021/04/04 13:05:07;;;;;;;11.55;3.35;;;;;;;;;;5010346;28;20038;-58
2021/04/04 13:07:33;;;;;;;12.65;3.33;;;;;;;;;;5010130;28;20034;-59
2021/04/04 13:09:59;;;;;;;12.38;3.17;;;;;;;;;;5005344;28;20519;-59
2021/04/04 13:12:36;;;;;;;17.15;4.28;;;;;;;;;;5008832;28;20041;-61
2021/04/04 13:15:03;;;;;;;12.63;4.40;;;;;;;;;;5006294;28;20034;-59
2021/04/04 13:17:37;;;;;;;17.77;6.28;;;;;;;;;;5015623;28;20097;-58
2021/04/04 13:20:03;;;;;;;12.77;4.72;;;;;;;;;;5009460;28;20042;-60
2021/04/04 13:22:35;;;;;;;13.48;4.43;;;;;;;;;;5009182;28;20038;-60
2021/04/04 13:25:01;;;;;;;18.80;5.00;;;;;;;;;;5011534;28;20030;-58
2021/04/04 13:27:27;;;;;;;15.38;5.00;;;;;;;;;;5044428;28;20052;-54
2021/04/04 13:29:54;;;;;;;14.35;5.00;;;;;;;;;;5022598;28;20061;-56
2021/04/04 13:32:22;;;;;;;20.80;6.22;;;;;;;;;;5044674;28;20048;-53
2021/04/04 13:34:50;;;;;;;17.90;5.78;;;;;;;;;;5023297;28;20487;-57
2021/04/04 13:37:16;;;;;;;16.07;5.83;;;;;;;;;;5009667;28;20302;-61
2021/04/04 13:39:42;;;;;;;17.02;5.80;;;;;;;;;;5007762;28;20319;-60
2021/04/04 13:42:09;;;;;;;17.02;5.35;;;;;;;;;;5006679;28;20052;-61
2021/04/04 13:44:40;;;;;;;16.23;5.60;;;;;;;;;;5009229;28;20049;-57
2021/04/04 13:47:19;;;;;;;11.82;4.38;;;;;;;;;;5007518;28;20033;-58
2021/04/04 13:49:44;;;;;;;13.32;4.68;;;;;;;;;;5026173;28;20041;-61
2021/04/04 13:52:20;;;;;;;15.38;5.13;;;;;;;;;;5035464;28;20037;-59
2021/04/04 13:54:47;;;;;;;12.93;4.43;;;;;;;;;;5015141;28;20107;-56
2021/04/04 13:57:14;;;;;;;10.52;3.50;;;;;;;;;;5023184;28;20105;-54
2021/04/04 13:59:47;;;;;;;15.40;4.47;;;;;;;;;;5022723;28;20064;-60
2021/04/04 14:02:16;;;;;;;11.80;4.15;;;;;;;;;;5020215;28;20041;-60
2021/04/04 14:04:42;;;;;;;12.82;4.45;;;;;;;;;;5026844;28;20048;-59
2021/04/04 14:07:12;;;;;;;8.90;2.80;;;;;;;;;;5019779;28;20041;-58
2021/04/04 14:09:39;;;;;;;14.48;3.88;;;;;;;;;;5039573;28;20054;-58
2021/04/04 14:12:12;;;;;;;7.13;3.13;;;;;;;;;;5019088;28;20119;-60
2021/04/04 14:14:39;;;;;;;10.43;4.00;;;;;;;;;;5019184;28;20033;-60
2021/04/04 14:17:07;;;;;;;11.30;3.60;;;;;;;;;;5021008;28;20033;-57
2021/04/04 14:19:34;;;;;;;13.70;3.50;;;;;;;;;;5026829;28;20029;-56
2021/04/04 14:22:01;;;;;;;15.00;3.00;;;;;;;;;;5020177;28;20064;-55
2021/04/04 14:24:27;;;;;;;11.25;3.00;;;;;;;;;;5042008;28;20065;-55
2021/04/04 14:26:53;;;;;;;13.48;3.50;;;;;;;;;;5023971;28;20065;-53
2021/04/04 14:29:19;;;;;;;8.35;3.30;;;;;;;;;;5027161;28;20110;-60
2021/04/04 14:31:47;;;;;;;9.90;3.53;;;;;;;;;;5037300;28;20045;-61
2021/04/04 14:34:13;;;;;;;9.80;3.28;;;;;;;;;;5040308;28;20033;-58
2021/04/04 14:36:40;;;;;;;10.57;3.17;;;;;;;;;;5043834;28;20033;-55
2021/04/04 14:39:07;;;;;;;11.00;3.22;;;;;;;;;;5040124;28;20035;-58
2021/04/04 14:41:33;;;;;;;10.38;3.95;;;;;;;;;;5026950;28;20068;-58
2021/04/04 14:44:08;;;;;;;11.30;3.15;;;;;;;;;;5022262;28;20086;-60
2021/04/04 14:46:34;;;;;;;19.23;4.07;;;;;;;;;;5043588;28;20037;-60
2021/04/04 14:49:00;;;;;;;10.90;3.90;;;;;;;;;;5023496;28;20049;-57
2021/04/04 14:51:26;;;;;;;20.27;6.22;;;;;;;;;;5018249;28;20062;-58